Historyczne dane pomiarowe

Dodano dane terminowe – wersja testowa.

Dane z okresu 1951-2019

Wersja bazy: 1.34 [2019-03-16, lista zmian], aktualizacja planowana na 2019-04-15

Dane meteo z obszaru Polski uzyskane na podstawie danych udostępnionych przez Instytut Meteorologii i Gospodarki Wodnej – Państwowy Instytut Badawczy.

 

Wybierz Datę:    

       

TemperaturaWilgotnośćZachmurzenieWiatrCiśnienieWidzialnośćZjawiska
 Data    tng td wb rh cc ccl cl cm ch dir g1 g2 mslp ppp      
1999-08-12 00:00:00 6.8--- 6.8 6.8100wxwx3wx--- 801.2 0.5---wxw1
1999-08-12 01:00:00 6.9--- 6.9 6.9100wxwx2wx--- 801.0----wxw1
1999-08-12 02:00:00 6.5--- 6.5 6.5100wxwx1wx--- 800.8----wxw1
1999-08-12 03:00:00 6.7--- 6.7 6.7100wxwx3wx--- 800.7----wxw1
1999-08-12 04:00:00 5.9--- 5.9 5.9100wxwx3wx--- 800.6----wxw1
1999-08-12 05:00:00 5.7--- 5.7 5.7100wxwx2wx--- 800.7----wxw1
1999-08-12 06:00:00 5.5--- 5.5 5.5100wxwx2wx--- 800.6 1.8---wxw1
1999-08-12 07:00:00 6.7--- 6.7 6.7100wxwxwx1wx--- 800.5----wxw1
1999-08-12 08:00:00 6.9--- 6.9 6.9100wxwxwx2wx--- 800.6----wxw1
1999-08-12 09:00:00 6.4--- 6.4 6.4100wxwx3wx--- 800.8----wxw1
1999-08-12 10:00:00 7.3--- 7.3 7.3100wxwx4wx--- 800.8----wxw1
1999-08-12 11:00:00 6.8--- 6.8 6.8100wxwx4wx--- 800.8----wxw1
1999-08-12 12:00:00 6.5--- 6.5 6.5100wxwx3wx--- 800.9 0.0---wxw1
1999-08-12 13:00:00 6.4--- 6.4 6.4100wxwx2wx--- 800.7----wxw1
1999-08-12 14:00:00 6.5--- 6.5 6.5100wxwx2wx--- 800.6----wxw1
1999-08-12 15:00:00 5.9--- 5.9 5.9100wxwx2wx--- 800.5----wxw1
1999-08-12 16:00:00 5.7--- 5.7 5.7100wxwx2wx--- 800.4----wxw1
1999-08-12 17:00:00 5.7--- 5.7 5.7100wxwx4wx--- 800.1----wxw1
1999-08-12 18:00:00 5.7--- 5.7 5.7100wxwx3wx--- 800.0 0.4---wxw1
1999-08-12 19:00:00 5.7--- 5.7 5.7100wxwx1wx--- 800.0----wxw1
1999-08-12 20:00:00 5.4--- 5.4 5.4100wxwx1wx--- 800.0----wxw1
1999-08-12 21:00:00 5.1--- 5.1 5.1100wxwx3wx--- 799.9----wxw1
1999-08-12 22:00:00 4.6--- 4.6 4.6100wxwx1wx--- 799.9----wxw1
1999-08-12 23:00:00 4.3--- 4.3 4.3100wxwx3wx--- 799.5----wxw1

 

Źródłem pochodzenia danych jest Instytut Meteorologii i Gospodarki Wodnej – Państwowy Instytut Badawczy. Dane Instytutu Meteorologii i Gospodarki Wodnej – Państwowego Instytutu Badawczego zostały przetworzone.

Dane źródłowe można odnaleźć na stronie https://dane.imgw.pl